Time;durP1;ratioP1;P1;durP2;ratioP2;P2;SDS_P1;SDS_P2;PMS_P1;PMS_P2;Temp;Humidity;BMP_temperature;BMP_pressure;BME280_temperature;BME280_humidity;BME280_pressure;Samples;Min_cycle;Max_cycle;Signal;HPM_P1;HPM_P2
2021/03/17 00:00:00;;;;;;;21.70;18.33;;;;;;;;;;5044981;28;39936;-78
2021/03/17 00:02:26;;;;;;;21.53;17.37;;;;;;;;;;5051706;27;40311;-79
2021/03/17 00:04:52;;;;;;;23.33;19.50;;;;;;;;;;5048785;28;38778;-80
2021/03/17 00:07:19;;;;;;;30.57;23.47;;;;;;;;;;5050678;27;36746;-79
2021/03/17 00:09:45;;;;;;;28.83;20.90;;;;;;;;;;5043043;28;39782;-78
2021/03/17 00:12:12;;;;;;;30.40;23.37;;;;;;;;;;5052506;27;38758;-78
2021/03/17 00:14:38;;;;;;;28.37;21.83;;;;;;;;;;5049561;27;38986;-77
2021/03/17 00:17:05;;;;;;;29.97;23.50;;;;;;;;;;5058808;27;36527;-79
2021/03/17 00:19:31;;;;;;;28.77;21.40;;;;;;;;;;5062622;27;38213;-80
2021/03/17 00:21:58;;;;;;;30.53;24.30;;;;;;;;;;5043191;28;38408;-80
2021/03/17 00:24:24;;;;;;;50.83;32.80;;;;;;;;;;5054065;27;38972;-79
2021/03/17 00:26:51;;;;;;;26.43;21.87;;;;;;;;;;5050536;28;37241;-79
2021/03/17 00:29:17;;;;;;;36.20;26.60;;;;;;;;;;5034449;28;40839;-82
2021/03/17 00:31:43;;;;;;;34.77;25.87;;;;;;;;;;5023802;28;38581;-78
2021/03/17 00:34:10;;;;;;;28.00;22.27;;;;;;;;;;5019456;28;37347;-80
2021/03/17 00:36:36;;;;;;;41.27;29.73;;;;;;;;;;5023799;28;38783;-76
2021/03/17 00:39:03;;;;;;;40.20;28.47;;;;;;;;;;5020262;28;42496;-77
2021/03/17 00:41:29;;;;;;;30.33;24.87;;;;;;;;;;5039326;28;38838;-78
2021/03/17 00:43:56;;;;;;;47.43;32.07;;;;;;;;;;5023095;28;39832;-78
2021/03/17 00:46:22;;;;;;;42.87;32.03;;;;;;;;;;5023674;28;37063;-78
2021/03/17 00:48:48;;;;;;;45.67;31.73;;;;;;;;;;5026992;28;38982;-81
2021/03/17 00:51:15;;;;;;;33.40;25.23;;;;;;;;;;5022796;28;39378;-79
2021/03/17 00:53:41;;;;;;;38.83;28.00;;;;;;;;;;5016106;28;38692;-78
2021/03/17 00:56:08;;;;;;;39.50;27.27;;;;;;;;;;5056096;28;35995;-79
2021/03/17 00:58:34;;;;;;;35.30;25.87;;;;;;;;;;5034390;28;39930;-78
2021/03/17 01:01:01;;;;;;;38.47;27.80;;;;;;;;;;5028884;28;38350;-77
2021/03/17 01:03:27;;;;;;;41.47;28.07;;;;;;;;;;5030809;28;37198;-77
2021/03/17 01:05:53;;;;;;;42.93;29.27;;;;;;;;;;5047244;28;37265;-78
2021/03/17 01:08:20;;;;;;;37.23;27.00;;;;;;;;;;5029064;28;39185;-80
2021/03/17 01:10:47;;;;;;;38.67;26.23;;;;;;;;;;5029102;28;39270;-78
2021/03/17 01:13:14;;;;;;;33.20;24.50;;;;;;;;;;5025279;28;38444;-79
2021/03/17 01:15:43;;;;;;;30.33;23.23;;;;;;;;;;5029686;27;37203;-78
2021/03/17 01:18:10;;;;;;;35.17;23.87;;;;;;;;;;5022549;28;39298;-80
2021/03/17 01:20:37;;;;;;;30.30;22.00;;;;;;;;;;5025700;28;39797;-79
2021/03/17 01:23:04;;;;;;;28.10;21.33;;;;;;;;;;5033664;28;39150;-77
2021/03/17 01:25:33;;;;;;;27.63;20.60;;;;;;;;;;5025746;28;37326;-77
2021/03/17 01:28:03;;;;;;;27.23;19.03;;;;;;;;;;5023953;28;39634;-77
2021/03/17 01:30:31;;;;;;;23.30;16.97;;;;;;;;;;5023218;28;40260;-78
2021/03/17 01:32:57;;;;;;;26.57;18.17;;;;;;;;;;5021385;28;38491;-79
2021/03/17 01:35:23;;;;;;;24.00;15.77;;;;;;;;;;5025414;28;40043;-78
2021/03/17 01:37:50;;;;;;;22.40;14.90;;;;;;;;;;5030896;28;38730;-78
2021/03/17 01:40:17;;;;;;;21.50;13.63;;;;;;;;;;5031113;28;38922;-79
2021/03/17 01:42:43;;;;;;;21.50;13.20;;;;;;;;;;5028212;28;38542;-77
2021/03/17 01:45:14;;;;;;;17.83;12.27;;;;;;;;;;5020703;27;37734;-76
2021/03/17 01:47:40;;;;;;;18.00;11.97;;;;;;;;;;5024459;28;39460;-77
2021/03/17 01:50:08;;;;;;;18.23;11.20;;;;;;;;;;5041338;27;38221;-79
2021/03/17 01:52:35;;;;;;;13.17;9.43;;;;;;;;;;5033845;28;40053;-80
2021/03/17 01:55:02;;;;;;;12.43;9.53;;;;;;;;;;5039461;28;40620;-80
2021/03/17 01:57:28;;;;;;;14.10;8.70;;;;;;;;;;5038669;28;49180;-81
2021/03/17 01:59:55;;;;;;;11.47;6.70;;;;;;;;;;5047602;28;38952;-81
2021/03/17 02:02:22;;;;;;;10.23;6.20;;;;;;;;;;5042339;28;39037;-80
2021/03/17 02:04:48;;;;;;;8.70;5.83;;;;;;;;;;5039167;27;38306;-81
2021/03/17 02:07:14;;;;;;;9.73;5.13;;;;;;;;;;5019029;28;38992;-80
2021/03/17 02:09:41;;;;;;;5.53;4.33;;;;;;;;;;5032243;28;39204;-81
2021/03/17 02:12:27;;;;;;;7.87;4.83;;;;;;;;;;5035986;28;39489;-78
2021/03/17 02:15:08;;;;;;;6.73;4.33;;;;;;;;;;5018955;28;36535;-79
2021/03/17 02:17:35;;;;;;;5.80;3.70;;;;;;;;;;5024300;28;48983;-77
2021/03/17 02:20:11;;;;;;;5.47;3.80;;;;;;;;;;5024619;28;37104;-80
2021/03/17 02:22:46;;;;;;;6.43;3.77;;;;;;;;;;5023982;28;48841;-79
2021/03/17 02:25:18;;;;;;;4.40;3.03;;;;;;;;;;5025935;28;34226;-79
2021/03/17 02:28:08;;;;;;;5.00;2.70;;;;;;;;;;5023294;28;41270;-79
2021/03/17 02:30:40;;;;;;;8.50;2.40;;;;;;;;;;5015979;28;47350;-81
2021/03/17 02:33:07;;;;;;;;;;;;;;;;;;5024670;28;38718;-79
2021/03/17 02:35:35;;;;;;;5.03;2.80;;;;;;;;;;5038826;28;37199;-77
2021/03/17 02:38:02;;;;;;;2.73;1.90;;;;;;;;;;5013442;28;40187;-79
2021/03/17 02:40:33;;;;;;;7.17;2.73;;;;;;;;;;5022236;28;48808;-76
2021/03/17 02:43:20;;;;;;;3.20;2.23;;;;;;;;;;5019566;28;36833;-78
2021/03/17 02:45:49;;;;;;;6.40;2.40;;;;;;;;;;5051903;28;47158;-78
2021/03/17 02:48:23;;;;;;;3.60;2.00;;;;;;;;;;5037132;28;40089;-78
2021/03/17 02:50:53;;;;;;;3.13;1.60;;;;;;;;;;5040496;27;36531;-76
2021/03/17 02:53:22;;;;;;;5.00;2.10;;;;;;;;;;5048484;27;38743;-79
2021/03/17 02:55:49;;;;;;;5.37;2.20;;;;;;;;;;5037823;28;37032;-76
2021/03/17 02:58:17;;;;;;;6.03;2.40;;;;;;;;;;5035077;28;40764;-76
2021/03/17 03:00:44;;;;;;;2.50;1.87;;;;;;;;;;5053175;27;40227;-80
2021/03/17 03:03:11;;;;;;;3.13;2.10;;;;;;;;;;5041927;28;39045;-77
2021/03/17 03:05:39;;;;;;;6.83;2.30;;;;;;;;;;5029392;28;35483;-75
2021/03/17 03:08:05;;;;;;;5.33;2.47;;;;;;;;;;5049321;27;38927;-78
2021/03/17 03:10:32;;;;;;;4.27;3.33;;;;;;;;;;5033416;28;38591;-76
2021/03/17 03:12:59;;;;;;;3.77;2.30;;;;;;;;;;5043227;28;37458;-76
2021/03/17 03:15:27;;;;;;;7.50;3.17;;;;;;;;;;5034435;27;38468;-76
2021/03/17 03:17:58;;;;;;;5.57;2.90;;;;;;;;;;5055941;28;38302;-77
2021/03/17 03:20:25;;;;;;;4.40;2.93;;;;;;;;;;5055317;28;38328;-75
2021/03/17 03:22:53;;;;;;;3.73;2.23;;;;;;;;;;5033371;28;38964;-78
2021/03/17 03:25:19;;;;;;;3.87;2.30;;;;;;;;;;5051858;28;35715;-77
2021/03/17 03:27:46;;;;;;;5.63;2.73;;;;;;;;;;5043009;28;38908;-76
2021/03/17 03:30:15;;;;;;;6.57;2.30;;;;;;;;;;5034690;28;41899;-78
2021/03/17 03:32:42;;;;;;;6.40;2.47;;;;;;;;;;5051794;28;37090;-77
2021/03/17 03:35:10;;;;;;;6.93;2.43;;;;;;;;;;5062066;28;35843;-77
2021/03/17 03:37:37;;;;;;;3.93;1.80;;;;;;;;;;5050291;28;38786;-78
2021/03/17 03:40:14;;;;;;;3.67;1.50;;;;;;;;;;5026902;28;39356;-77
2021/03/17 03:42:41;;;;;;;3.57;1.73;;;;;;;;;;5041569;28;39065;-77
2021/03/17 03:45:09;;;;;;;7.93;2.00;;;;;;;;;;5026548;28;37820;-78
2021/03/17 03:47:36;;;;;;;2.90;1.60;;;;;;;;;;5017513;28;41717;-77
2021/03/17 03:50:03;;;;;;;5.03;1.30;;;;;;;;;;5054645;28;40098;-76
2021/03/17 03:52:56;;;;;;;4.13;1.60;;;;;;;;;;5028467;28;38200;-76
2021/03/17 03:55:25;;;;;;;5.50;1.63;;;;;;;;;;5011043;28;35863;-77
2021/03/17 03:57:52;;;;;;;4.37;1.40;;;;;;;;;;5050638;27;37630;-78
2021/03/17 04:00:24;;;;;;;4.00;1.80;;;;;;;;;;5059681;27;38762;-77
2021/03/17 04:02:51;;;;;;;5.47;1.97;;;;;;;;;;5041041;28;38322;-76
2021/03/17 04:05:22;;;;;;;6.93;2.20;;;;;;;;;;5069088;27;39055;-78
2021/03/17 04:07:49;;;;;;;4.30;1.70;;;;;;;;;;5041988;28;38833;-75
2021/03/17 04:10:16;;;;;;;2.60;1.60;;;;;;;;;;5044863;28;38874;-76
2021/03/17 04:12:45;;;;;;;4.43;1.73;;;;;;;;;;5054501;27;40330;-78
2021/03/17 04:15:14;;;;;;;5.70;2.30;;;;;;;;;;5038219;28;37748;-76
2021/03/17 04:17:50;;;;;;;7.40;3.03;;;;;;;;;;5045687;28;39754;-74
2021/03/17 04:20:18;;;;;;;6.73;3.00;;;;;;;;;;5043495;27;39571;-76
2021/03/17 04:22:45;;;;;;;5.40;3.10;;;;;;;;;;5047727;28;38467;-75
2021/03/17 04:25:13;;;;;;;6.87;3.33;;;;;;;;;;5050101;27;37353;-79
2021/03/17 04:27:43;;;;;;;8.00;3.70;;;;;;;;;;5051603;28;39323;-77
2021/03/17 04:30:12;;;;;;;5.97;3.63;;;;;;;;;;5038127;28;39543;-78
2021/03/17 04:32:40;;;;;;;4.10;3.70;;;;;;;;;;5018356;28;36733;-77
2021/03/17 04:35:07;;;;;;;6.33;4.03;;;;;;;;;;5021642;28;38337;-79
2021/03/17 04:37:34;;;;;;;9.23;4.57;;;;;;;;;;5022104;28;39640;-77
2021/03/17 04:40:01;;;;;;;6.57;3.73;;;;;;;;;;5044262;28;39306;-81
2021/03/17 04:42:28;;;;;;;5.73;2.73;;;;;;;;;;5011809;28;47518;-81
2021/03/17 04:44:55;;;;;;;6.00;2.73;;;;;;;;;;5016137;28;35666;-77
2021/03/17 04:47:22;;;;;;;2.77;2.07;;;;;;;;;;5042929;28;40448;-75
2021/03/17 04:49:49;;;;;;;5.20;2.00;;;;;;;;;;5050439;28;39298;-76
2021/03/17 04:52:18;;;;;;;3.40;2.27;;;;;;;;;;5021708;28;38264;-78
2021/03/17 04:54:44;;;;;;;6.27;2.53;;;;;;;;;;5013688;28;36724;-79
2021/03/17 04:57:15;;;;;;;8.30;2.70;;;;;;;;;;5017733;28;38503;-77
2021/03/17 04:59:42;;;;;;;5.60;2.30;;;;;;;;;;5014119;28;38457;-76
2021/03/17 05:02:11;;;;;;;5.47;2.23;;;;;;;;;;5017435;28;38127;-78
2021/03/17 05:04:42;;;;;;;8.93;3.00;;;;;;;;;;5050418;28;37328;-80
2021/03/17 05:07:09;;;;;;;5.93;3.23;;;;;;;;;;5017005;28;38027;-77
2021/03/17 05:09:35;;;;;;;8.73;4.03;;;;;;;;;;5019482;28;38903;-77
2021/03/17 05:12:03;;;;;;;6.40;3.30;;;;;;;;;;5018339;28;37845;-79
2021/03/17 05:14:31;;;;;;;7.93;3.30;;;;;;;;;;5030206;28;47319;-77
2021/03/17 05:16:59;;;;;;;8.93;3.20;;;;;;;;;;5019521;28;40717;-77
2021/03/17 05:19:25;;;;;;;12.33;3.87;;;;;;;;;;5022717;28;38315;-77
2021/03/17 05:21:52;;;;;;;6.77;2.63;;;;;;;;;;5027035;28;37979;-77
2021/03/17 05:24:18;;;;;;;7.27;2.70;;;;;;;;;;5032502;28;37269;-76
2021/03/17 05:26:45;;;;;;;15.70;2.80;;;;;;;;;;5020827;28;38690;-79
2021/03/17 05:29:12;;;;;;;13.70;3.70;;;;;;;;;;5031625;28;37858;-77
2021/03/17 05:31:39;;;;;;;13.83;3.27;;;;;;;;;;5026802;28;38979;-76
2021/03/17 05:34:05;;;;;;;8.23;3.13;;;;;;;;;;5025366;28;39112;-76
2021/03/17 05:36:32;;;;;;;19.57;3.00;;;;;;;;;;5035042;28;38764;-77
2021/03/17 05:38:58;;;;;;;12.03;2.63;;;;;;;;;;5024947;28;38638;-79
2021/03/17 05:41:24;;;;;;;12.47;2.40;;;;;;;;;;5027094;28;38185;-75
2021/03/17 05:43:51;;;;;;;13.13;2.53;;;;;;;;;;5040448;28;37346;-77
2021/03/17 05:46:18;;;;;;;8.87;1.90;;;;;;;;;;5028007;28;39694;-78
2021/03/17 05:48:45;;;;;;;9.00;1.93;;;;;;;;;;5024436;28;38780;-75
2021/03/17 05:51:11;;;;;;;9.57;1.40;;;;;;;;;;5023357;28;37538;-76
2021/03/17 05:53:38;;;;;;;5.50;1.67;;;;;;;;;;5023616;28;36673;-79
2021/03/17 05:56:05;;;;;;;10.70;1.60;;;;;;;;;;5027344;28;38662;-77
2021/03/17 05:58:32;;;;;;;3.53;1.20;;;;;;;;;;5022817;28;38386;-78
2021/03/17 06:00:59;;;;;;;6.87;1.33;;;;;;;;;;5025242;28;38536;-78
2021/03/17 06:03:25;;;;;;;5.93;1.10;;;;;;;;;;5022384;28;38072;-77
2021/03/17 06:05:52;;;;;;;4.27;0.87;;;;;;;;;;5022344;28;39570;-78
2021/03/17 06:08:26;;;;;;;9.40;1.33;;;;;;;;;;5019063;28;40776;-76
2021/03/17 06:10:53;;;;;;;6.30;0.90;;;;;;;;;;5026374;28;38328;-77
2021/03/17 06:13:21;;;;;;;5.30;0.90;;;;;;;;;;5021813;28;37554;-76
2021/03/17 06:16:09;;;;;;;5.33;0.90;;;;;;;;;;5023910;28;40250;-76
2021/03/17 06:18:42;;;;;;;3.23;1.23;;;;;;;;;;5043402;28;47551;-79
2021/03/17 06:21:09;;;;;;;10.10;1.13;;;;;;;;;;5044775;27;39029;-76
2021/03/17 06:23:35;;;;;;;9.90;1.50;;;;;;;;;;5055220;27;35835;-78
2021/03/17 06:26:02;;;;;;;7.10;0.90;;;;;;;;;;5043059;27;38959;-80
2021/03/17 06:28:28;;;;;;;8.07;1.00;;;;;;;;;;5037363;28;48450;-79
2021/03/17 06:30:55;;;;;;;4.27;0.90;;;;;;;;;;5039654;28;39259;-77
2021/03/17 06:33:21;;;;;;;5.40;0.80;;;;;;;;;;5062877;27;35897;-78
2021/03/17 06:35:48;;;;;;;3.67;0.90;;;;;;;;;;5040379;28;39440;-76
2021/03/17 06:38:21;;;;;;;4.10;1.00;;;;;;;;;;5018129;28;40225;-75
2021/03/17 06:40:58;;;;;;;6.47;1.23;;;;;;;;;;5028443;28;37257;-77
2021/03/17 06:43:36;;;;;;;8.33;1.63;;;;;;;;;;5036158;28;36993;-79
2021/03/17 06:46:02;;;;;;;4.53;0.80;;;;;;;;;;5044708;28;39809;-76
2021/03/17 06:48:30;;;;;;;5.90;1.30;;;;;;;;;;5036837;28;45981;-78
2021/03/17 06:51:15;;;;;;;8.13;1.10;;;;;;;;;;5038648;28;38678;-76
2021/03/17 06:53:41;;;;;;;6.17;1.03;;;;;;;;;;5037807;28;48544;-75
2021/03/17 06:56:11;;;;;;;5.97;0.93;;;;;;;;;;5050370;27;39513;-75
2021/03/17 06:58:42;;;;;;;6.50;1.40;;;;;;;;;;5027192;28;38308;-79
2021/03/17 07:01:25;;;;;;;6.10;1.33;;;;;;;;;;5032407;28;39561;-77
2021/03/17 07:03:55;;;;;;;4.25;1.52;;;;;;;;;;5018016;28;36454;-77
2021/03/17 07:06:22;;;;;;;6.83;1.23;;;;;;;;;;5033939;28;40883;-76
2021/03/17 07:08:48;;;;;;;6.60;1.63;;;;;;;;;;5052688;28;39303;-78
2021/03/17 07:11:21;;;;;;;6.07;1.70;;;;;;;;;;5046775;28;38415;-76
2021/03/17 07:13:53;;;;;;;3.50;1.42;;;;;;;;;;5019075;28;35997;-76
2021/03/17 07:16:29;;;;;;;2.90;1.10;;;;;;;;;;5014741;28;37918;-76
2021/03/17 07:18:55;;;;;;;5.80;2.00;;;;;;;;;;5008199;28;38950;-76
2021/03/17 07:21:29;;;;;;;6.30;1.53;;;;;;;;;;5013879;28;39472;-75
2021/03/17 07:23:55;;;;;;;5.50;1.23;;;;;;;;;;5023231;28;37972;-75
2021/03/17 07:26:25;;;;;;;7.73;2.77;;;;;;;;;;5033309;28;38816;-76
2021/03/17 07:28:56;;;;;;;4.90;1.13;;;;;;;;;;5015562;28;38949;-75
2021/03/17 07:31:32;;;;;;;2.87;1.10;;;;;;;;;;5035678;28;38862;-77
2021/03/17 07:34:08;;;;;;;4.53;1.23;;;;;;;;;;5012805;28;37073;-77
2021/03/17 07:36:43;;;;;;;4.17;1.07;;;;;;;;;;5035373;28;47243;-76
2021/03/17 07:39:12;;;;;;;8.37;1.43;;;;;;;;;;5034769;28;37197;-77
2021/03/17 07:41:38;;;;;;;6.07;1.40;;;;;;;;;;5018161;28;36925;-76
2021/03/17 07:44:06;;;;;;;2.87;1.27;;;;;;;;;;5046895;28;37183;-76
2021/03/17 07:46:33;;;;;;;2.97;1.20;;;;;;;;;;5024565;28;37566;-74
2021/03/17 07:49:00;;;;;;;4.57;1.50;;;;;;;;;;5035084;28;39602;-74
2021/03/17 07:51:26;;;;;;;6.17;1.40;;;;;;;;;;5028223;28;39834;-76
2021/03/17 07:53:54;;;;;;;4.00;1.47;;;;;;;;;;5030228;28;37282;-76
2021/03/17 07:56:21;;;;;;;10.87;1.60;;;;;;;;;;5018406;28;38000;-75
2021/03/17 07:58:49;;;;;;;4.10;1.10;;;;;;;;;;5020505;28;38661;-75
2021/03/17 08:01:16;;;;;;;4.53;1.40;;;;;;;;;;5013919;28;37870;-75
2021/03/17 08:03:44;;;;;;;8.10;2.07;;;;;;;;;;5022243;28;36765;-74
2021/03/17 08:06:10;;;;;;;2.37;1.17;;;;;;;;;;5021523;28;39029;-75
2021/03/17 08:08:37;;;;;;;3.77;1.20;;;;;;;;;;5024444;28;38484;-75
2021/03/17 08:11:03;;;;;;;2.77;1.10;;;;;;;;;;5017139;28;37829;-74
2021/03/17 08:13:31;;;;;;;3.33;1.20;;;;;;;;;;5020471;28;36550;-74
2021/03/17 08:15:57;;;;;;;3.77;1.30;;;;;;;;;;5014840;28;37922;-73
2021/03/17 08:18:33;;;;;;;10.17;2.00;;;;;;;;;;5025822;28;41199;-75
2021/03/17 08:21:00;;;;;;;6.87;1.90;;;;;;;;;;5028030;28;38707;-75
2021/03/17 08:23:50;;;;;;;4.83;1.57;;;;;;;;;;5031510;28;35937;-76
2021/03/17 08:26:22;;;;;;;3.90;1.43;;;;;;;;;;5022079;28;39638;-76
2021/03/17 08:28:50;;;;;;;5.35;1.60;;;;;;;;;;5015245;28;39346;-74
2021/03/17 08:31:52;;;;;;;4.30;1.27;;;;;;;;;;5024495;28;37139;-73
2021/03/17 08:34:18;;;;;;;6.70;2.13;;;;;;;;;;5017639;28;38273;-76
2021/03/17 08:36:49;;;;;;;6.13;1.60;;;;;;;;;;5019686;28;37323;-75
2021/03/17 08:39:34;;;;;;;10.20;1.50;;;;;;;;;;5019338;28;38823;-75
2021/03/17 08:42:01;;;;;;;5.93;1.63;;;;;;;;;;5021316;28;37772;-78
2021/03/17 08:44:31;;;;;;;6.43;1.60;;;;;;;;;;5017109;28;48489;-77
2021/03/17 08:47:12;;;;;;;4.83;1.70;;;;;;;;;;5037855;28;37835;-76
2021/03/17 08:49:38;;;;;;;3.73;1.50;;;;;;;;;;5037079;28;47385;-77
2021/03/17 08:52:15;;;;;;;3.73;1.30;;;;;;;;;;5052617;27;39633;-77
2021/03/17 08:54:49;;;;;;;9.57;1.40;;;;;;;;;;5051247;27;35954;-75
2021/03/17 08:57:16;;;;;;;6.67;1.93;;;;;;;;;;5052066;27;38689;-75
2021/03/17 08:59:43;;;;;;;3.70;0.80;;;;;;;;;;5042469;28;39548;-78
2021/03/17 09:02:30;;;;;;;7.67;0.80;;;;;;;;;;5035707;28;37789;-77
2021/03/17 09:04:57;;;;;;;2.83;0.60;;;;;;;;;;5012445;28;36869;-76
2021/03/17 09:07:24;;;;;;;7.30;1.97;;;;;;;;;;5039962;28;37800;-75
2021/03/17 09:09:52;;;;;;;3.47;0.80;;;;;;;;;;5058364;27;39554;-77
2021/03/17 09:12:28;;;;;;;4.50;1.23;;;;;;;;;;5044184;28;37235;-75
2021/03/17 09:15:12;;;;;;;6.80;1.07;;;;;;;;;;5044473;28;38555;-75
2021/03/17 09:17:55;;;;;;;3.90;0.73;;;;;;;;;;5042491;28;48904;-75
2021/03/17 09:20:23;;;;;;;4.45;0.68;;;;;;;;;;5044266;28;40231;-76
2021/03/17 09:23:00;;;;;;;4.07;0.93;;;;;;;;;;5018054;28;39000;-77
2021/03/17 09:25:28;;;;;;;3.00;0.50;;;;;;;;;;5021406;28;36925;-77
2021/03/17 09:27:54;;;;;;;2.43;0.53;;;;;;;;;;5022678;28;38466;-78
2021/03/17 09:30:22;;;;;;;2.43;0.50;;;;;;;;;;5047906;28;39981;-75
2021/03/17 09:32:49;;;;;;;5.37;0.90;;;;;;;;;;5050141;28;39909;-78
2021/03/17 09:35:16;;;;;;;1.90;0.67;;;;;;;;;;5017468;28;37923;-75
2021/03/17 09:37:43;;;;;;;4.43;0.90;;;;;;;;;;5016537;28;39055;-79
2021/03/17 09:40:12;;;;;;;2.70;0.47;;;;;;;;;;5016712;28;39327;-76
2021/03/17 09:42:39;;;;;;;5.23;0.63;;;;;;;;;;5023247;28;38339;-76
2021/03/17 09:45:07;;;;;;;6.33;0.70;;;;;;;;;;5022281;28;36964;-75
2021/03/17 09:47:33;;;;;;;2.93;0.70;;;;;;;;;;5021398;28;40516;-75
2021/03/17 09:50:00;;;;;;;2.03;0.43;;;;;;;;;;5020117;28;39228;-75
2021/03/17 09:52:26;;;;;;;3.23;0.60;;;;;;;;;;5030009;28;38762;-76
2021/03/17 09:54:53;;;;;;;7.27;0.57;;;;;;;;;;5018392;28;36761;-80
2021/03/17 09:57:19;;;;;;;6.40;0.80;;;;;;;;;;5029742;28;39158;-76
2021/03/17 09:59:46;;;;;;;7.10;0.70;;;;;;;;;;5020678;28;37886;-79
2021/03/17 10:02:26;;;;;;;7.00;0.90;;;;;;;;;;5015151;28;37616;-79
2021/03/17 10:05:01;;;;;;;7.50;1.30;;;;;;;;;;5016839;28;36645;-76
2021/03/17 10:07:29;;;;;;;5.90;1.07;;;;;;;;;;5013491;28;45026;-75
2021/03/17 10:09:57;;;;;;;4.07;0.60;;;;;;;;;;5037952;28;38905;-75
2021/03/17 10:12:32;;;;;;;4.13;0.70;;;;;;;;;;5039010;28;38207;-74
2021/03/17 10:15:09;;;;;;;3.77;0.57;;;;;;;;;;5049260;28;36520;-74
2021/03/17 10:17:36;;;;;;;5.60;0.93;;;;;;;;;;5049647;27;47153;-75
2021/03/17 10:20:08;;;;;;;5.20;1.70;;;;;;;;;;5038750;28;38301;-74
2021/03/17 10:22:35;;;;;;;6.10;0.85;;;;;;;;;;5041267;28;37544;-74
2021/03/17 10:25:06;;;;;;;6.77;0.77;;;;;;;;;;5029117;28;36631;-76
2021/03/17 10:27:34;;;;;;;9.67;1.00;;;;;;;;;;5062762;27;46943;-74
2021/03/17 10:30:04;;;;;;;3.67;0.77;;;;;;;;;;5039847;28;38752;-77
2021/03/17 10:32:30;;;;;;;7.30;1.80;;;;;;;;;;5022128;28;48681;-74
2021/03/17 10:34:57;;;;;;;8.03;1.20;;;;;;;;;;5012658;28;36441;-74
2021/03/17 10:37:23;;;;;;;6.87;0.90;;;;;;;;;;5018106;28;39405;-75
2021/03/17 10:39:51;;;;;;;5.57;0.80;;;;;;;;;;5030770;28;39232;-74
2021/03/17 10:42:27;;;;;;;8.07;1.33;;;;;;;;;;5040363;28;39195;-74
2021/03/17 10:45:09;;;;;;;6.90;1.63;;;;;;;;;;5053406;27;37607;-74
2021/03/17 10:47:36;;;;;;;8.07;1.23;;;;;;;;;;5052475;28;47198;-75
2021/03/17 10:50:03;;;;;;;7.23;1.03;;;;;;;;;;5045446;28;39623;-75
2021/03/17 10:52:33;;;;;;;6.90;1.40;;;;;;;;;;5053054;27;47012;-76
2021/03/17 10:55:07;;;;;;;7.27;1.23;;;;;;;;;;5033613;28;36558;-75
2021/03/17 10:57:34;;;;;;;4.53;0.83;;;;;;;;;;5041979;28;49127;-78
2021/03/17 11:00:14;;;;;;;3.67;0.70;;;;;;;;;;5047241;28;38834;-76
2021/03/17 11:02:41;;;;;;;7.03;1.53;;;;;;;;;;5034820;28;48926;-76
2021/03/17 11:05:27;;;;;;;12.27;1.53;;;;;;;;;;5049558;27;39240;-77
2021/03/17 11:07:55;;;;;;;10.30;2.10;;;;;;;;;;5016229;28;39793;-75
2021/03/17 11:10:29;;;;;;;8.13;1.20;;;;;;;;;;5020203;28;39726;-76
2021/03/17 11:12:55;;;;;;;11.87;1.27;;;;;;;;;;5021127;28;37831;-76
2021/03/17 11:15:26;;;;;;;6.90;1.00;;;;;;;;;;5019136;28;37591;-75
2021/03/17 11:17:53;;;;;;;4.67;0.90;;;;;;;;;;5018600;28;40354;-76
2021/03/17 11:20:19;;;;;;;10.23;1.10;;;;;;;;;;5022544;28;39847;-76
2021/03/17 11:22:46;;;;;;;5.63;1.00;;;;;;;;;;5029192;28;39380;-75
2021/03/17 11:25:12;;;;;;;6.17;1.07;;;;;;;;;;5019823;28;37161;-74
2021/03/17 11:27:40;;;;;;;3.87;0.93;;;;;;;;;;5017619;28;39339;-75
2021/03/17 11:30:10;;;;;;;11.83;1.27;;;;;;;;;;5016448;28;39173;-75
2021/03/17 11:32:37;;;;;;;7.93;1.10;;;;;;;;;;5016978;28;38860;-75
2021/03/17 11:35:06;;;;;;;7.47;1.30;;;;;;;;;;5018635;28;36597;-75
2021/03/17 11:37:33;;;;;;;14.93;1.73;;;;;;;;;;5032018;28;39431;-74
2021/03/17 11:39:59;;;;;;;7.33;1.20;;;;;;;;;;5022535;28;38823;-75
2021/03/17 11:42:26;;;;;;;10.10;1.90;;;;;;;;;;5034189;27;38488;-75
2021/03/17 11:44:52;;;;;;;6.60;1.27;;;;;;;;;;5031370;28;36912;-74
2021/03/17 11:47:19;;;;;;;12.90;1.60;;;;;;;;;;5019009;28;38742;-76
2021/03/17 11:49:45;;;;;;;8.33;1.57;;;;;;;;;;5025740;28;40496;-75
2021/03/17 11:52:11;;;;;;;10.73;1.30;;;;;;;;;;5018365;28;36733;-75
2021/03/17 11:54:38;;;;;;;11.20;1.77;;;;;;;;;;5024581;28;37119;-73
2021/03/17 11:57:04;;;;;;;11.23;1.53;;;;;;;;;;5022920;28;40790;-75
2021/03/17 11:59:31;;;;;;;18.20;2.10;;;;;;;;;;5017546;28;39885;-74
2021/03/17 12:01:57;;;;;;;11.20;1.67;;;;;;;;;;5011839;28;39132;-74
2021/03/17 12:04:24;;;;;;;7.93;1.53;;;;;;;;;;5027818;28;35971;-74
2021/03/17 12:06:50;;;;;;;11.73;1.47;;;;;;;;;;5018980;28;39756;-75
2021/03/17 12:09:16;;;;;;;11.50;1.63;;;;;;;;;;5012920;28;39404;-74
2021/03/17 12:11:43;;;;;;;20.07;3.83;;;;;;;;;;5021125;28;38153;-74
2021/03/17 12:14:10;;;;;;;10.07;1.87;;;;;;;;;;5025956;28;37151;-74
2021/03/17 12:16:36;;;;;;;11.90;1.80;;;;;;;;;;5038320;28;39059;-74
2021/03/17 12:19:03;;;;;;;13.80;2.10;;;;;;;;;;5027361;28;38773;-75
2021/03/17 12:21:29;;;;;;;14.13;2.07;;;;;;;;;;5016239;28;39219;-77
2021/03/17 12:23:57;;;;;;;9.87;1.43;;;;;;;;;;5024928;28;20056;-76
2021/03/17 12:26:23;;;;;;;12.67;2.50;;;;;;;;;;5042313;28;38722;-74
2021/03/17 12:28:49;;;;;;;12.13;2.03;;;;;;;;;;5042823;28;39042;-74
2021/03/17 12:31:16;;;;;;;11.03;1.93;;;;;;;;;;5042035;28;38114;-76
2021/03/17 12:33:42;;;;;;;11.57;2.03;;;;;;;;;;5059637;27;37438;-74
2021/03/17 12:36:09;;;;;;;13.20;2.10;;;;;;;;;;5042034;28;38974;-74
2021/03/17 12:38:35;;;;;;;11.40;1.77;;;;;;;;;;5022994;28;39363;-76
2021/03/17 12:41:02;;;;;;;5.60;1.40;;;;;;;;;;5039525;28;38089;-73
2021/03/17 12:43:29;;;;;;;7.20;1.43;;;;;;;;;;5027481;28;47639;-74
2021/03/17 12:45:55;;;;;;;15.23;1.57;;;;;;;;;;5051326;27;39351;-75
2021/03/17 12:48:21;;;;;;;9.90;2.00;;;;;;;;;;5034417;28;39518;-77
2021/03/17 12:50:48;;;;;;;8.30;1.40;;;;;;;;;;5047225;28;38173;-74
2021/03/17 12:53:14;;;;;;;7.53;1.43;;;;;;;;;;5067262;27;37934;-74
2021/03/17 12:55:41;;;;;;;6.03;1.73;;;;;;;;;;5020515;28;39720;-74
2021/03/17 12:58:07;;;;;;;12.13;2.37;;;;;;;;;;5010259;28;39414;-75
2021/03/17 13:00:34;;;;;;;16.47;1.80;;;;;;;;;;5025120;28;38848;-74
2021/03/17 13:03:00;;;;;;;13.30;1.77;;;;;;;;;;5014758;28;38592;-76
2021/03/17 13:05:26;;;;;;;13.13;1.73;;;;;;;;;;5036780;28;41179;-74
2021/03/17 13:07:53;;;;;;;8.03;1.80;;;;;;;;;;5037629;28;39853;-75
2021/03/17 13:10:21;;;;;;;12.20;2.50;;;;;;;;;;5044559;28;38092;-75
2021/03/17 13:12:47;;;;;;;11.90;1.97;;;;;;;;;;5052237;27;37208;-74
2021/03/17 13:15:15;;;;;;;8.83;1.90;;;;;;;;;;5033874;28;40646;-74
2021/03/17 13:17:42;;;;;;;13.77;1.53;;;;;;;;;;5043550;28;40085;-75
2021/03/17 13:20:10;;;;;;;12.40;1.90;;;;;;;;;;5036473;28;38556;-75
2021/03/17 13:22:37;;;;;;;17.03;1.67;;;;;;;;;;5039616;28;36970;-76
2021/03/17 13:25:04;;;;;;;13.60;2.17;;;;;;;;;;5023822;28;39656;-77
2021/03/17 13:27:30;;;;;;;11.30;2.10;;;;;;;;;;5037932;28;38630;-76
2021/03/17 13:29:58;;;;;;;8.00;1.60;;;;;;;;;;5034948;28;39920;-73
2021/03/17 13:32:26;;;;;;;10.40;2.20;;;;;;;;;;5019689;28;37510;-74
2021/03/17 13:34:52;;;;;;;9.13;1.53;;;;;;;;;;5022172;28;38788;-74
2021/03/17 13:37:19;;;;;;;15.37;1.87;;;;;;;;;;5021489;28;38195;-75
2021/03/17 13:39:45;;;;;;;10.20;1.60;;;;;;;;;;5043181;28;39872;-75
2021/03/17 13:42:11;;;;;;;13.77;1.33;;;;;;;;;;5044729;28;37607;-77
2021/03/17 13:44:38;;;;;;;7.13;1.47;;;;;;;;;;5021425;28;40341;-77
2021/03/17 13:47:04;;;;;;;9.50;1.57;;;;;;;;;;5055459;28;39934;-77
2021/03/17 13:49:30;;;;;;;13.17;2.17;;;;;;;;;;5058351;28;39103;-76
2021/03/17 13:51:57;;;;;;;11.47;2.10;;;;;;;;;;5023376;28;36990;-77
2021/03/17 13:54:23;;;;;;;13.93;1.90;;;;;;;;;;5024032;28;38532;-77
2021/03/17 13:56:49;;;;;;;11.87;2.30;;;;;;;;;;5023788;28;38836;-74
2021/03/17 13:59:16;;;;;;;14.83;2.40;;;;;;;;;;5024409;28;37887;-77
2021/03/17 14:01:42;;;;;;;14.50;2.00;;;;;;;;;;5022182;28;38386;-75
2021/03/17 14:04:09;;;;;;;15.03;2.30;;;;;;;;;;5045755;28;39551;-76
2021/03/17 14:06:35;;;;;;;12.30;2.00;;;;;;;;;;5026967;28;39232;-74
2021/03/17 14:09:01;;;;;;;11.23;2.47;;;;;;;;;;5053350;28;38765;-75
2021/03/17 14:11:28;;;;;;;15.47;2.43;;;;;;;;;;5025147;28;48709;-75
2021/03/17 14:13:54;;;;;;;13.00;2.20;;;;;;;;;;5024003;28;39319;-76
2021/03/17 14:16:21;;;;;;;15.13;2.07;;;;;;;;;;5031552;28;38304;-78
2021/03/17 14:18:47;;;;;;;8.23;2.07;;;;;;;;;;5030023;28;38879;-75
2021/03/17 14:21:13;;;;;;;10.57;2.00;;;;;;;;;;5018076;28;35435;-76
2021/03/17 14:23:40;;;;;;;11.83;2.07;;;;;;;;;;5033938;28;40199;-77
2021/03/17 14:26:06;;;;;;;11.33;1.57;;;;;;;;;;5022437;28;38325;-74
2021/03/17 14:28:33;;;;;;;7.90;1.90;;;;;;;;;;5022032;28;38340;-75
2021/03/17 14:31:01;;;;;;;12.83;2.03;;;;;;;;;;5040170;28;36670;-75
2021/03/17 14:33:27;;;;;;;10.43;2.03;;;;;;;;;;5041821;27;39282;-77
2021/03/17 14:35:54;;;;;;;12.63;1.77;;;;;;;;;;5035471;28;39348;-77
2021/03/17 14:38:20;;;;;;;12.77;2.50;;;;;;;;;;5020747;28;38357;-75
2021/03/17 14:40:46;;;;;;;10.83;1.90;;;;;;;;;;5010244;28;35919;-73
2021/03/17 14:43:14;;;;;;;11.60;2.03;;;;;;;;;;5032432;28;39585;-75